sensor_id;sensor_type;location;lat;lon;timestamp;temperature;humidity
44223;DHT22;29895;48.804;9.386;2024-03-22T00:00:15;6.80;99.90
44223;DHT22;29895;48.804;9.386;2024-03-22T00:02:41;6.80;99.90
44223;DHT22;29895;48.804;9.386;2024-03-22T00:05:06;6.70;99.90
44223;DHT22;29895;48.804;9.386;2024-03-22T00:07:32;6.70;99.90
44223;DHT22;29895;48.804;9.386;2024-03-22T00:09:58;6.70;99.90
44223;DHT22;29895;48.804;9.386;2024-03-22T00:12:23;6.60;99.90
44223;DHT22;29895;48.804;9.386;2024-03-22T00:14:49;6.70;99.90
44223;DHT22;29895;48.804;9.386;2024-03-22T00:17:17;6.60;99.90
44223;DHT22;29895;48.804;9.386;2024-03-22T00:19:42;6.50;99.90
44223;DHT22;29895;48.804;9.386;2024-03-22T00:22:09;6.50;99.90
44223;DHT22;29895;48.804;9.386;2024-03-22T00:24:34;6.40;99.90
44223;DHT22;29895;48.804;9.386;2024-03-22T00:27:00;6.40;99.90
44223;DHT22;29895;48.804;9.386;2024-03-22T00:29:25;6.30;99.90
44223;DHT22;29895;48.804;9.386;2024-03-22T00:31:52;6.20;99.90
44223;DHT22;29895;48.804;9.386;2024-03-22T00:34:18;6.10;99.90
44223;DHT22;29895;48.804;9.386;2024-03-22T00:36:45;6.10;99.90
44223;DHT22;29895;48.804;9.386;2024-03-22T00:39:11;6.20;99.90
44223;DHT22;29895;48.804;9.386;2024-03-22T00:41:38;6.20;99.90
44223;DHT22;29895;48.804;9.386;2024-03-22T00:44:04;6.10;99.90
44223;DHT22;29895;48.804;9.386;2024-03-22T00:46:30;6.10;99.90
44223;DHT22;29895;48.804;9.386;2024-03-22T00:48:55;6.10;99.90
44223;DHT22;29895;48.804;9.386;2024-03-22T00:51:21;6.00;99.90
44223;DHT22;29895;48.804;9.386;2024-03-22T00:53:47;5.90;99.90
44223;DHT22;29895;48.804;9.386;2024-03-22T00:56:13;5.90;99.90
44223;DHT22;29895;48.804;9.386;2024-03-22T00:58:38;5.90;99.90
44223;DHT22;29895;48.804;9.386;2024-03-22T01:01:04;5.90;99.90
44223;DHT22;29895;48.804;9.386;2024-03-22T01:03:30;6.00;99.90
44223;DHT22;29895;48.804;9.386;2024-03-22T01:05:55;6.10;99.90
44223;DHT22;29895;48.804;9.386;2024-03-22T01:08:22;6.10;99.90
44223;DHT22;29895;48.804;9.386;2024-03-22T01:10:48;6.10;99.90
44223;DHT22;29895;48.804;9.386;2024-03-22T01:13:15;6.00;99.90
44223;DHT22;29895;48.804;9.386;2024-03-22T01:15:40;5.90;99.90
44223;DHT22;29895;48.804;9.386;2024-03-22T01:18:06;5.90;99.90
44223;DHT22;29895;48.804;9.386;2024-03-22T01:20:32;5.90;99.90
44223;DHT22;29895;48.804;9.386;2024-03-22T01:22:59;5.80;99.90
44223;DHT22;29895;48.804;9.386;2024-03-22T01:25:25;5.70;99.90
44223;DHT22;29895;48.804;9.386;2024-03-22T01:27:50;5.70;99.90
44223;DHT22;29895;48.804;9.386;2024-03-22T01:30:16;5.80;99.90
44223;DHT22;29895;48.804;9.386;2024-03-22T01:32:41;5.90;99.90
44223;DHT22;29895;48.804;9.386;2024-03-22T01:35:08;5.70;99.90
44223;DHT22;29895;48.804;9.386;2024-03-22T01:37:34;5.70;99.90
44223;DHT22;29895;48.804;9.386;2024-03-22T01:39:59;5.60;99.90
44223;DHT22;29895;48.804;9.386;2024-03-22T01:42:25;5.50;99.90
44223;DHT22;29895;48.804;9.386;2024-03-22T01:44:51;5.50;99.90
44223;DHT22;29895;48.804;9.386;2024-03-22T01:47:17;5.60;99.90
44223;DHT22;29895;48.804;9.386;2024-03-22T01:49:43;5.50;99.90
44223;DHT22;29895;48.804;9.386;2024-03-22T01:52:09;5.50;99.90
44223;DHT22;29895;48.804;9.386;2024-03-22T01:54:34;5.60;99.90
44223;DHT22;29895;48.804;9.386;2024-03-22T01:57:00;5.50;99.90
44223;DHT22;29895;48.804;9.386;2024-03-22T01:59:27;5.50;99.90
44223;DHT22;29895;48.804;9.386;2024-03-22T02:01:53;5.60;99.90
44223;DHT22;29895;48.804;9.386;2024-03-22T02:04:19;5.60;99.90
44223;DHT22;29895;48.804;9.386;2024-03-22T02:06:44;5.50;99.90
44223;DHT22;29895;48.804;9.386;2024-03-22T02:09:10;5.40;99.90
44223;DHT22;29895;48.804;9.386;2024-03-22T02:11:36;5.30;99.90
44223;DHT22;29895;48.804;9.386;2024-03-22T02:14:05;5.30;99.90
44223;DHT22;29895;48.804;9.386;2024-03-22T02:16:30;5.30;99.90
44223;DHT22;29895;48.804;9.386;2024-03-22T02:18:56;5.20;99.90
44223;DHT22;29895;48.804;9.386;2024-03-22T02:21:22;5.20;99.90
44223;DHT22;29895;48.804;9.386;2024-03-22T02:23:47;5.20;99.90
44223;DHT22;29895;48.804;9.386;2024-03-22T02:26:13;5.20;99.90
44223;DHT22;29895;48.804;9.386;2024-03-22T02:28:39;5.20;99.90
44223;DHT22;29895;48.804;9.386;2024-03-22T02:31:04;5.10;99.90
44223;DHT22;29895;48.804;9.386;2024-03-22T02:33:30;5.10;99.90
44223;DHT22;29895;48.804;9.386;2024-03-22T02:35:56;5.10;99.90
44223;DHT22;29895;48.804;9.386;2024-03-22T02:38:22;5.20;99.90
44223;DHT22;29895;48.804;9.386;2024-03-22T02:40:50;5.20;99.90
44223;DHT22;29895;48.804;9.386;2024-03-22T02:43:16;5.20;99.90
44223;DHT22;29895;48.804;9.386;2024-03-22T02:45:44;5.20;99.90
44223;DHT22;29895;48.804;9.386;2024-03-22T02:48:10;5.10;99.90
44223;DHT22;29895;48.804;9.386;2024-03-22T02:50:36;5.00;99.90
44223;DHT22;29895;48.804;9.386;2024-03-22T02:53:03;5.10;99.90
44223;DHT22;29895;48.804;9.386;2024-03-22T02:55:29;5.00;99.90
44223;DHT22;29895;48.804;9.386;2024-03-22T02:57:56;5.00;99.90
44223;DHT22;29895;48.804;9.386;2024-03-22T03:00:22;5.00;99.90
44223;DHT22;29895;48.804;9.386;2024-03-22T03:02:48;5.00;99.90
44223;DHT22;29895;48.804;9.386;2024-03-22T03:05:14;4.90;99.90
44223;DHT22;29895;48.804;9.386;2024-03-22T03:07:39;5.00;99.90
44223;DHT22;29895;48.804;9.386;2024-03-22T03:10:06;5.00;99.90
44223;DHT22;29895;48.804;9.386;2024-03-22T03:12:32;4.90;99.90
44223;DHT22;29895;48.804;9.386;2024-03-22T03:14:58;5.00;99.90
44223;DHT22;29895;48.804;9.386;2024-03-22T03:17:23;5.00;99.90
44223;DHT22;29895;48.804;9.386;2024-03-22T03:19:49;5.00;99.90
44223;DHT22;29895;48.804;9.386;2024-03-22T03:22:15;5.00;99.90
44223;DHT22;29895;48.804;9.386;2024-03-22T03:24:41;5.00;99.90
44223;DHT22;29895;48.804;9.386;2024-03-22T03:27:06;5.00;99.90
44223;DHT22;29895;48.804;9.386;2024-03-22T03:29:32;5.10;99.90
44223;DHT22;29895;48.804;9.386;2024-03-22T03:31:58;5.20;99.90
44223;DHT22;29895;48.804;9.386;2024-03-22T03:34:23;5.10;99.90
44223;DHT22;29895;48.804;9.386;2024-03-22T03:36:49;5.10;99.90
44223;DHT22;29895;48.804;9.386;2024-03-22T03:39:15;5.10;99.90
44223;DHT22;29895;48.804;9.386;2024-03-22T03:41:40;5.00;99.90
44223;DHT22;29895;48.804;9.386;2024-03-22T03:44:06;4.90;99.90
44223;DHT22;29895;48.804;9.386;2024-03-22T03:46:32;5.10;99.90
44223;DHT22;29895;48.804;9.386;2024-03-22T03:48:57;5.00;99.90
44223;DHT22;29895;48.804;9.386;2024-03-22T03:51:23;4.90;99.90
44223;DHT22;29895;48.804;9.386;2024-03-22T03:53:48;4.80;99.90
44223;DHT22;29895;48.804;9.386;2024-03-22T03:56:14;4.80;99.90
44223;DHT22;29895;48.804;9.386;2024-03-22T03:58:40;4.90;99.90
44223;DHT22;29895;48.804;9.386;2024-03-22T04:01:09;4.90;99.90
44223;DHT22;29895;48.804;9.386;2024-03-22T04:03:35;4.90;99.90
44223;DHT22;29895;48.804;9.386;2024-03-22T04:06:01;4.80;99.90
44223;DHT22;29895;48.804;9.386;2024-03-22T04:08:27;4.70;99.90
44223;DHT22;29895;48.804;9.386;2024-03-22T04:10:54;4.60;99.90
44223;DHT22;29895;48.804;9.386;2024-03-22T04:13:22;4.60;99.90
44223;DHT22;29895;48.804;9.386;2024-03-22T04:15:48;4.60;99.90
44223;DHT22;29895;48.804;9.386;2024-03-22T04:18:13;4.60;99.90
44223;DHT22;29895;48.804;9.386;2024-03-22T04:20:39;4.60;99.90
44223;DHT22;29895;48.804;9.386;2024-03-22T04:23:04;4.50;99.90
44223;DHT22;29895;48.804;9.386;2024-03-22T04:25:30;4.60;99.90
44223;DHT22;29895;48.804;9.386;2024-03-22T04:27:56;4.50;99.90
44223;DHT22;29895;48.804;9.386;2024-03-22T04:30:21;4.50;99.90
44223;DHT22;29895;48.804;9.386;2024-03-22T04:32:47;4.50;99.90
44223;DHT22;29895;48.804;9.386;2024-03-22T04:35:13;4.60;99.90
44223;DHT22;29895;48.804;9.386;2024-03-22T04:37:39;4.60;99.90
44223;DHT22;29895;48.804;9.386;2024-03-22T04:40:05;4.50;99.90
44223;DHT22;29895;48.804;9.386;2024-03-22T04:42:31;4.50;99.90
44223;DHT22;29895;48.804;9.386;2024-03-22T04:44:57;4.50;99.90
44223;DHT22;29895;48.804;9.386;2024-03-22T04:47:23;4.50;99.90
44223;DHT22;29895;48.804;9.386;2024-03-22T04:49:49;4.50;99.90
44223;DHT22;29895;48.804;9.386;2024-03-22T04:52:14;4.60;99.90
44223;DHT22;29895;48.804;9.386;2024-03-22T04:54:40;4.60;99.90
44223;DHT22;29895;48.804;9.386;2024-03-22T04:57:06;4.70;99.90
44223;DHT22;29895;48.804;9.386;2024-03-22T04:59:31;4.70;99.90
44223;DHT22;29895;48.804;9.386;2024-03-22T05:01:57;4.70;99.90
44223;DHT22;29895;48.804;9.386;2024-03-22T05:04:23;4.70;99.90
44223;DHT22;29895;48.804;9.386;2024-03-22T05:06:48;4.70;99.90
44223;DHT22;29895;48.804;9.386;2024-03-22T05:09:14;4.70;99.90
44223;DHT22;29895;48.804;9.386;2024-03-22T05:11:40;4.70;99.90
44223;DHT22;29895;48.804;9.386;2024-03-22T05:14:05;4.80;99.90
44223;DHT22;29895;48.804;9.386;2024-03-22T05:16:31;4.80;99.90
44223;DHT22;29895;48.804;9.386;2024-03-22T05:18:56;4.80;99.90
44223;DHT22;29895;48.804;9.386;2024-03-22T05:21:22;4.90;99.90
44223;DHT22;29895;48.804;9.386;2024-03-22T05:23:48;4.90;99.90
44223;DHT22;29895;48.804;9.386;2024-03-22T05:26:13;5.00;99.90
44223;DHT22;29895;48.804;9.386;2024-03-22T05:28:39;5.00;99.90
44223;DHT22;29895;48.804;9.386;2024-03-22T05:31:04;5.10;99.90
44223;DHT22;29895;48.804;9.386;2024-03-22T05:33:30;5.20;99.90
44223;DHT22;29895;48.804;9.386;2024-03-22T05:35:56;5.30;99.90
44223;DHT22;29895;48.804;9.386;2024-03-22T05:38:21;5.30;99.90
44223;DHT22;29895;48.804;9.386;2024-03-22T05:40:47;5.30;99.90
44223;DHT22;29895;48.804;9.386;2024-03-22T05:43:13;5.40;99.90
44223;DHT22;29895;48.804;9.386;2024-03-22T05:45:39;5.40;99.90
44223;DHT22;29895;48.804;9.386;2024-03-22T05:48:05;5.50;99.90
44223;DHT22;29895;48.804;9.386;2024-03-22T05:50:31;5.60;99.90
44223;DHT22;29895;48.804;9.386;2024-03-22T05:52:57;5.70;99.90
44223;DHT22;29895;48.804;9.386;2024-03-22T05:55:22;5.80;99.90
44223;DHT22;29895;48.804;9.386;2024-03-22T05:57:49;5.80;99.90
44223;DHT22;29895;48.804;9.386;2024-03-22T06:00:15;5.80;99.90
44223;DHT22;29895;48.804;9.386;2024-03-22T06:02:41;5.80;99.90
44223;DHT22;29895;48.804;9.386;2024-03-22T06:05:06;5.90;99.90
44223;DHT22;29895;48.804;9.386;2024-03-22T06:07:32;5.80;99.90
44223;DHT22;29895;48.804;9.386;2024-03-22T06:10:06;5.90;99.90
44223;DHT22;29895;48.804;9.386;2024-03-22T06:12:32;5.90;99.90
44223;DHT22;29895;48.804;9.386;2024-03-22T06:14:57;5.90;99.90
44223;DHT22;29895;48.804;9.386;2024-03-22T06:17:23;5.90;99.90
44223;DHT22;29895;48.804;9.386;2024-03-22T06:19:49;6.00;99.90
44223;DHT22;29895;48.804;9.386;2024-03-22T06:22:14;6.00;99.90
44223;DHT22;29895;48.804;9.386;2024-03-22T06:24:40;6.10;99.90
44223;DHT22;29895;48.804;9.386;2024-03-22T06:27:05;6.10;99.90
44223;DHT22;29895;48.804;9.386;2024-03-22T06:29:32;6.20;99.90
44223;DHT22;29895;48.804;9.386;2024-03-22T06:31:58;6.40;99.90
44223;DHT22;29895;48.804;9.386;2024-03-22T06:34:23;6.60;99.90
44223;DHT22;29895;48.804;9.386;2024-03-22T06:36:50;6.70;99.90
44223;DHT22;29895;48.804;9.386;2024-03-22T06:39:16;6.80;99.90
44223;DHT22;29895;48.804;9.386;2024-03-22T06:41:42;7.00;99.90
44223;DHT22;29895;48.804;9.386;2024-03-22T06:44:08;7.30;99.90
44223;DHT22;29895;48.804;9.386;2024-03-22T06:46:37;7.70;99.90
44223;DHT22;29895;48.804;9.386;2024-03-22T06:49:03;7.80;99.90
44223;DHT22;29895;48.804;9.386;2024-03-22T06:51:28;8.10;99.90
44223;DHT22;29895;48.804;9.386;2024-03-22T06:53:54;8.30;99.90
44223;DHT22;29895;48.804;9.386;2024-03-22T06:56:20;8.40;99.90
44223;DHT22;29895;48.804;9.386;2024-03-22T06:58:46;8.80;99.90
44223;DHT22;29895;48.804;9.386;2024-03-22T07:01:12;9.20;99.90
44223;DHT22;29895;48.804;9.386;2024-03-22T07:03:37;9.50;99.90
44223;DHT22;29895;48.804;9.386;2024-03-22T07:06:03;9.60;99.90
44223;DHT22;29895;48.804;9.386;2024-03-22T07:08:31;9.90;99.90
44223;DHT22;29895;48.804;9.386;2024-03-22T07:10:57;10.10;99.90
44223;DHT22;29895;48.804;9.386;2024-03-22T07:13:22;10.10;99.90
44223;DHT22;29895;48.804;9.386;2024-03-22T07:15:48;10.30;99.90
44223;DHT22;29895;48.804;9.386;2024-03-22T07:18:14;10.60;99.90
44223;DHT22;29895;48.804;9.386;2024-03-22T07:20:41;10.80;99.90
44223;DHT22;29895;48.804;9.386;2024-03-22T07:23:07;10.80;99.90
44223;DHT22;29895;48.804;9.386;2024-03-22T07:25:33;10.90;99.90
44223;DHT22;29895;48.804;9.386;2024-03-22T07:27:59;11.10;99.90
44223;DHT22;29895;48.804;9.386;2024-03-22T07:30:24;11.20;99.90
44223;DHT22;29895;48.804;9.386;2024-03-22T07:32:50;11.50;99.90
44223;DHT22;29895;48.804;9.386;2024-03-22T07:35:16;11.80;99.90
44223;DHT22;29895;48.804;9.386;2024-03-22T07:37:42;12.00;99.90
44223;DHT22;29895;48.804;9.386;2024-03-22T07:40:08;12.20;99.90
44223;DHT22;29895;48.804;9.386;2024-03-22T07:42:34;12.20;99.90
44223;DHT22;29895;48.804;9.386;2024-03-22T07:44:59;12.00;99.90
44223;DHT22;29895;48.804;9.386;2024-03-22T07:47:25;12.10;99.90
44223;DHT22;29895;48.804;9.386;2024-03-22T07:49:51;12.20;99.90
44223;DHT22;29895;48.804;9.386;2024-03-22T07:52:16;12.10;99.90
44223;DHT22;29895;48.804;9.386;2024-03-22T07:54:42;11.70;99.90
44223;DHT22;29895;48.804;9.386;2024-03-22T07:57:08;11.70;99.90
44223;DHT22;29895;48.804;9.386;2024-03-22T07:59:34;11.80;99.90
44223;DHT22;29895;48.804;9.386;2024-03-22T08:02:00;12.10;99.90
44223;DHT22;29895;48.804;9.386;2024-03-22T08:04:25;12.40;99.90
44223;DHT22;29895;48.804;9.386;2024-03-22T08:06:51;12.90;99.90
44223;DHT22;29895;48.804;9.386;2024-03-22T08:09:17;13.20;99.90
44223;DHT22;29895;48.804;9.386;2024-03-22T08:11:44;13.40;99.90
44223;DHT22;29895;48.804;9.386;2024-03-22T08:14:09;13.70;99.90
44223;DHT22;29895;48.804;9.386;2024-03-22T08:16:35;13.80;99.90
44223;DHT22;29895;48.804;9.386;2024-03-22T08:19:01;13.90;99.90
44223;DHT22;29895;48.804;9.386;2024-03-22T08:21:26;14.00;99.90
44223;DHT22;29895;48.804;9.386;2024-03-22T08:23:52;13.90;99.90
44223;DHT22;29895;48.804;9.386;2024-03-22T08:26:18;13.60;99.90
44223;DHT22;29895;48.804;9.386;2024-03-22T08:28:47;13.30;99.90
44223;DHT22;29895;48.804;9.386;2024-03-22T08:31:13;13.20;99.90
44223;DHT22;29895;48.804;9.386;2024-03-22T08:33:39;13.10;99.90
44223;DHT22;29895;48.804;9.386;2024-03-22T08:36:05;13.40;99.90
44223;DHT22;29895;48.804;9.386;2024-03-22T08:38:30;13.80;99.90
44223;DHT22;29895;48.804;9.386;2024-03-22T08:40:56;14.00;99.90
44223;DHT22;29895;48.804;9.386;2024-03-22T08:43:22;14.10;99.90
44223;DHT22;29895;48.804;9.386;2024-03-22T08:45:51;14.20;99.90
44223;DHT22;29895;48.804;9.386;2024-03-22T08:48:16;14.20;99.90
44223;DHT22;29895;48.804;9.386;2024-03-22T08:50:43;14.20;99.90
44223;DHT22;29895;48.804;9.386;2024-03-22T08:53:09;14.40;99.90
44223;DHT22;29895;48.804;9.386;2024-03-22T08:55:34;14.50;99.90
44223;DHT22;29895;48.804;9.386;2024-03-22T08:58:00;14.40;99.90
44223;DHT22;29895;48.804;9.386;2024-03-22T09:00:26;14.50;99.90
44223;DHT22;29895;48.804;9.386;2024-03-22T09:02:52;14.70;99.90
44223;DHT22;29895;48.804;9.386;2024-03-22T09:05:18;14.90;99.90
44223;DHT22;29895;48.804;9.386;2024-03-22T09:07:44;15.10;99.90
44223;DHT22;29895;48.804;9.386;2024-03-22T09:10:10;15.00;99.90
44223;DHT22;29895;48.804;9.386;2024-03-22T09:12:36;14.80;99.90
44223;DHT22;29895;48.804;9.386;2024-03-22T09:15:02;14.70;99.90
44223;DHT22;29895;48.804;9.386;2024-03-22T09:17:27;14.70;99.90
44223;DHT22;29895;48.804;9.386;2024-03-22T09:19:53;14.70;99.90
44223;DHT22;29895;48.804;9.386;2024-03-22T09:22:19;14.90;99.90
44223;DHT22;29895;48.804;9.386;2024-03-22T09:24:44;14.80;99.90
44223;DHT22;29895;48.804;9.386;2024-03-22T09:27:10;14.80;99.90
44223;DHT22;29895;48.804;9.386;2024-03-22T09:29:38;14.90;99.90
44223;DHT22;29895;48.804;9.386;2024-03-22T09:32:04;15.20;99.90
44223;DHT22;29895;48.804;9.386;2024-03-22T09:34:30;15.40;99.90
44223;DHT22;29895;48.804;9.386;2024-03-22T09:36:57;15.80;99.90
44223;DHT22;29895;48.804;9.386;2024-03-22T09:39:23;15.90;99.90
44223;DHT22;29895;48.804;9.386;2024-03-22T09:41:50;16.10;99.90
44223;DHT22;29895;48.804;9.386;2024-03-22T09:44:18;16.30;99.90
44223;DHT22;29895;48.804;9.386;2024-03-22T09:46:46;16.60;99.90
44223;DHT22;29895;48.804;9.386;2024-03-22T09:49:13;16.80;99.90
44223;DHT22;29895;48.804;9.386;2024-03-22T09:51:42;17.00;99.90
44223;DHT22;29895;48.804;9.386;2024-03-22T09:54:09;17.10;99.90
44223;DHT22;29895;48.804;9.386;2024-03-22T09:56:35;16.90;99.90
44223;DHT22;29895;48.804;9.386;2024-03-22T09:59:03;16.80;99.90
44223;DHT22;29895;48.804;9.386;2024-03-22T10:01:29;16.70;99.90
44223;DHT22;29895;48.804;9.386;2024-03-22T10:03:57;16.80;99.90
44223;DHT22;29895;48.804;9.386;2024-03-22T10:06:22;16.90;99.90
44223;DHT22;29895;48.804;9.386;2024-03-22T10:08:48;17.10;99.90
44223;DHT22;29895;48.804;9.386;2024-03-22T10:11:14;17.40;99.90
44223;DHT22;29895;48.804;9.386;2024-03-22T10:13:39;17.80;99.90
44223;DHT22;29895;48.804;9.386;2024-03-22T10:16:05;18.10;99.90
44223;DHT22;29895;48.804;9.386;2024-03-22T10:18:34;18.50;99.90
44223;DHT22;29895;48.804;9.386;2024-03-22T10:21:01;19.20;99.90
44223;DHT22;29895;48.804;9.386;2024-03-22T10:23:28;19.50;99.90
44223;DHT22;29895;48.804;9.386;2024-03-22T10:25:55;19.70;99.10
44223;DHT22;29895;48.804;9.386;2024-03-22T10:28:21;19.80;99.00
44223;DHT22;29895;48.804;9.386;2024-03-22T10:30:49;19.90;98.10
44223;DHT22;29895;48.804;9.386;2024-03-22T10:33:16;19.30;99.00
44223;DHT22;29895;48.804;9.386;2024-03-22T10:35:44;19.10;98.90
44223;DHT22;29895;48.804;9.386;2024-03-22T10:38:12;18.70;99.70
44223;DHT22;29895;48.804;9.386;2024-03-22T10:40:40;18.50;99.90
44223;DHT22;29895;48.804;9.386;2024-03-22T10:43:09;18.70;99.70
44223;DHT22;29895;48.804;9.386;2024-03-22T10:45:35;18.30;99.90
44223;DHT22;29895;48.804;9.386;2024-03-22T10:48:06;18.30;99.90
44223;DHT22;29895;48.804;9.386;2024-03-22T10:50:34;18.70;99.80
44223;DHT22;29895;48.804;9.386;2024-03-22T10:53:03;18.80;99.30
44223;DHT22;29895;48.804;9.386;2024-03-22T10:55:37;18.30;99.70
44223;DHT22;29895;48.804;9.386;2024-03-22T10:58:03;18.20;99.90
44223;DHT22;29895;48.804;9.386;2024-03-22T11:00:31;18.10;99.90
44223;DHT22;29895;48.804;9.386;2024-03-22T11:02:57;18.10;99.90
44223;DHT22;29895;48.804;9.386;2024-03-22T11:05:23;18.20;99.90
44223;DHT22;29895;48.804;9.386;2024-03-22T11:08:03;18.10;99.80
44223;DHT22;29895;48.804;9.386;2024-03-22T11:10:34;18.20;99.60
44223;DHT22;29895;48.804;9.386;2024-03-22T11:13:07;18.20;99.80
44223;DHT22;29895;48.804;9.386;2024-03-22T11:15:33;18.50;99.50
44223;DHT22;29895;48.804;9.386;2024-03-22T11:17:59;18.60;99.10
44223;DHT22;29895;48.804;9.386;2024-03-22T11:20:26;18.80;98.80
44223;DHT22;29895;48.804;9.386;2024-03-22T11:22:52;18.80;98.30
44223;DHT22;29895;48.804;9.386;2024-03-22T11:25:18;18.80;98.90
44223;DHT22;29895;48.804;9.386;2024-03-22T11:27:45;19.20;98.50
44223;DHT22;29895;48.804;9.386;2024-03-22T11:30:11;19.50;97.80
44223;DHT22;29895;48.804;9.386;2024-03-22T11:32:37;19.70;97.10
44223;DHT22;29895;48.804;9.386;2024-03-22T11:35:13;19.70;96.70
44223;DHT22;29895;48.804;9.386;2024-03-22T11:37:39;19.60;96.90
44223;DHT22;29895;48.804;9.386;2024-03-22T11:40:09;19.60;96.90
44223;DHT22;29895;48.804;9.386;2024-03-22T11:42:36;19.80;96.70
44223;DHT22;29895;48.804;9.386;2024-03-22T11:45:03;20.10;96.00
44223;DHT22;29895;48.804;9.386;2024-03-22T11:47:30;20.30;95.90
44223;DHT22;29895;48.804;9.386;2024-03-22T11:49:55;20.50;96.00
44223;DHT22;29895;48.804;9.386;2024-03-22T11:52:31;20.40;95.50
44223;DHT22;29895;48.804;9.386;2024-03-22T11:54:57;20.20;95.50
44223;DHT22;29895;48.804;9.386;2024-03-22T11:57:23;20.20;95.60
44223;DHT22;29895;48.804;9.386;2024-03-22T11:59:50;20.20;95.20
44223;DHT22;29895;48.804;9.386;2024-03-22T12:02:16;20.50;94.80
44223;DHT22;29895;48.804;9.386;2024-03-22T12:04:42;20.30;94.50
44223;DHT22;29895;48.804;9.386;2024-03-22T12:07:13;20.50;94.80
44223;DHT22;29895;48.804;9.386;2024-03-22T12:09:40;20.70;95.20
44223;DHT22;29895;48.804;9.386;2024-03-22T12:12:08;20.70;94.50
44223;DHT22;29895;48.804;9.386;2024-03-22T12:14:35;20.50;94.20
44223;DHT22;29895;48.804;9.386;2024-03-22T12:17:01;20.50;93.60
44223;DHT22;29895;48.804;9.386;2024-03-22T12:19:27;20.40;94.10
44223;DHT22;29895;48.804;9.386;2024-03-22T12:21:53;20.40;93.50
44223;DHT22;29895;48.804;9.386;2024-03-22T12:24:18;20.40;93.70
44223;DHT22;29895;48.804;9.386;2024-03-22T12:26:44;20.60;93.90
44223;DHT22;29895;48.804;9.386;2024-03-22T12:29:12;20.90;93.80
44223;DHT22;29895;48.804;9.386;2024-03-22T12:31:38;21.40;93.20
44223;DHT22;29895;48.804;9.386;2024-03-22T12:34:03;21.30;93.10
44223;DHT22;29895;48.804;9.386;2024-03-22T12:36:29;21.30;92.90
44223;DHT22;29895;48.804;9.386;2024-03-22T12:38:54;21.00;93.00
44223;DHT22;29895;48.804;9.386;2024-03-22T12:41:20;21.00;92.90
44223;DHT22;29895;48.804;9.386;2024-03-22T12:43:46;21.30;92.60
44223;DHT22;29895;48.804;9.386;2024-03-22T12:46:11;21.40;92.10
44223;DHT22;29895;48.804;9.386;2024-03-22T12:48:37;21.60;91.70
44223;DHT22;29895;48.804;9.386;2024-03-22T12:51:03;21.80;91.00
44223;DHT22;29895;48.804;9.386;2024-03-22T12:53:29;21.80;91.20
44223;DHT22;29895;48.804;9.386;2024-03-22T12:55:54;21.00;91.70
44223;DHT22;29895;48.804;9.386;2024-03-22T12:58:20;21.00;91.70
44223;DHT22;29895;48.804;9.386;2024-03-22T13:00:46;21.30;91.90
44223;DHT22;29895;48.804;9.386;2024-03-22T13:03:11;21.20;92.00
44223;DHT22;29895;48.804;9.386;2024-03-22T13:05:38;21.30;91.40
44223;DHT22;29895;48.804;9.386;2024-03-22T13:08:05;21.40;91.40
44223;DHT22;29895;48.804;9.386;2024-03-22T13:10:30;21.10;91.60
44223;DHT22;29895;48.804;9.386;2024-03-22T13:12:56;21.00;91.80
44223;DHT22;29895;48.804;9.386;2024-03-22T13:15:23;21.00;91.70
44223;DHT22;29895;48.804;9.386;2024-03-22T13:17:48;21.10;91.70
44223;DHT22;29895;48.804;9.386;2024-03-22T13:20:14;21.30;91.50
44223;DHT22;29895;48.804;9.386;2024-03-22T13:22:41;21.40;91.70
44223;DHT22;29895;48.804;9.386;2024-03-22T13:25:07;21.50;91.40
44223;DHT22;29895;48.804;9.386;2024-03-22T13:27:35;21.70;91.30
44223;DHT22;29895;48.804;9.386;2024-03-22T13:30:03;21.70;91.10
44223;DHT22;29895;48.804;9.386;2024-03-22T13:32:30;21.80;91.00
44223;DHT22;29895;48.804;9.386;2024-03-22T13:34:56;21.30;90.90
44223;DHT22;29895;48.804;9.386;2024-03-22T13:37:22;20.80;91.30
44223;DHT22;29895;48.804;9.386;2024-03-22T13:39:49;20.60;91.30
44223;DHT22;29895;48.804;9.386;2024-03-22T13:42:15;20.20;91.80
44223;DHT22;29895;48.804;9.386;2024-03-22T13:44:41;20.00;91.80
44223;DHT22;29895;48.804;9.386;2024-03-22T13:47:08;20.20;91.60
44223;DHT22;29895;48.804;9.386;2024-03-22T13:49:33;20.20;91.40
44223;DHT22;29895;48.804;9.386;2024-03-22T13:51:59;20.30;91.60
44223;DHT22;29895;48.804;9.386;2024-03-22T13:54:25;20.40;92.10
44223;DHT22;29895;48.804;9.386;2024-03-22T13:56:50;20.80;91.80
44223;DHT22;29895;48.804;9.386;2024-03-22T13:59:16;20.80;91.50
44223;DHT22;29895;48.804;9.386;2024-03-22T14:01:42;20.60;91.50
44223;DHT22;29895;48.804;9.386;2024-03-22T14:04:11;20.60;92.10
44223;DHT22;29895;48.804;9.386;2024-03-22T14:06:37;20.50;91.40
44223;DHT22;29895;48.804;9.386;2024-03-22T14:09:03;20.20;92.00
44223;DHT22;29895;48.804;9.386;2024-03-22T14:11:30;20.00;92.40
44223;DHT22;29895;48.804;9.386;2024-03-22T14:13:59;20.00;92.30
44223;DHT22;29895;48.804;9.386;2024-03-22T14:16:25;19.90;92.40
44223;DHT22;29895;48.804;9.386;2024-03-22T14:18:52;19.90;93.00
44223;DHT22;29895;48.804;9.386;2024-03-22T14:21:18;19.70;93.20
44223;DHT22;29895;48.804;9.386;2024-03-22T14:23:46;19.50;93.80
44223;DHT22;29895;48.804;9.386;2024-03-22T14:26:12;19.40;94.20
44223;DHT22;29895;48.804;9.386;2024-03-22T14:28:39;19.20;93.90
44223;DHT22;29895;48.804;9.386;2024-03-22T14:31:09;19.10;93.90
44223;DHT22;29895;48.804;9.386;2024-03-22T14:33:35;18.90;94.40
44223;DHT22;29895;48.804;9.386;2024-03-22T14:36:05;18.90;94.30
44223;DHT22;29895;48.804;9.386;2024-03-22T14:38:32;18.80;94.40
44223;DHT22;29895;48.804;9.386;2024-03-22T14:40:58;18.70;94.30
44223;DHT22;29895;48.804;9.386;2024-03-22T14:43:24;18.80;95.00
44223;DHT22;29895;48.804;9.386;2024-03-22T14:45:54;18.80;94.50
44223;DHT22;29895;48.804;9.386;2024-03-22T14:48:21;18.80;94.60
44223;DHT22;29895;48.804;9.386;2024-03-22T14:50:47;18.80;94.90
44223;DHT22;29895;48.804;9.386;2024-03-22T14:53:14;18.70;94.90
44223;DHT22;29895;48.804;9.386;2024-03-22T14:55:40;18.80;95.20
44223;DHT22;29895;48.804;9.386;2024-03-22T14:58:06;18.90;94.90
44223;DHT22;29895;48.804;9.386;2024-03-22T15:00:32;18.80;94.50
44223;DHT22;29895;48.804;9.386;2024-03-22T15:02:59;18.70;94.70
44223;DHT22;29895;48.804;9.386;2024-03-22T15:05:24;18.60;94.90
44223;DHT22;29895;48.804;9.386;2024-03-22T15:07:50;18.60;94.60
44223;DHT22;29895;48.804;9.386;2024-03-22T15:10:15;18.50;94.30
44223;DHT22;29895;48.804;9.386;2024-03-22T15:12:41;18.50;94.70
44223;DHT22;29895;48.804;9.386;2024-03-22T15:15:07;18.60;94.40
44223;DHT22;29895;48.804;9.386;2024-03-22T15:17:33;18.60;94.10
44223;DHT22;29895;48.804;9.386;2024-03-22T15:19:59;18.50;94.30
44223;DHT22;29895;48.804;9.386;2024-03-22T15:22:25;18.40;94.50
44223;DHT22;29895;48.804;9.386;2024-03-22T15:24:51;18.50;94.90
44223;DHT22;29895;48.804;9.386;2024-03-22T15:27:17;18.60;93.60
44223;DHT22;29895;48.804;9.386;2024-03-22T15:29:43;18.50;92.00